sensor_id;sensor_type;location;lat;lon;timestamp;pressure;altitude;pressure_sealevel;temperature;humidity
44839;BME280;30576;42.098;24.876;2023-07-24T00:00:12;99764.91;;;22.81;64.87
44839;BME280;30576;42.098;24.876;2023-07-24T00:02:37;99760.38;;;22.96;65.45
44839;BME280;30576;42.098;24.876;2023-07-24T00:05:03;99756.88;;;22.94;65.80
44839;BME280;30576;42.098;24.876;2023-07-24T00:07:28;99749.72;;;22.94;67.42
44839;BME280;30576;42.098;24.876;2023-07-24T00:09:55;99792.88;;;23.20;67.90
44839;BME280;30576;42.098;24.876;2023-07-24T00:12:24;99800.19;;;23.18;68.73
44839;BME280;30576;42.098;24.876;2023-07-24T00:14:52;99781.78;;;22.97;69.67
44839;BME280;30576;42.098;24.876;2023-07-24T00:17:18;99777.00;;;22.74;70.45
44839;BME280;30576;42.098;24.876;2023-07-24T00:19:43;99810.81;;;22.78;71.14
44839;BME280;30576;42.098;24.876;2023-07-24T00:22:09;99750.63;;;22.66;69.77
44839;BME280;30576;42.098;24.876;2023-07-24T00:24:36;99802.59;;;23.22;67.91
44839;BME280;30576;42.098;24.876;2023-07-24T00:27:02;99819.06;;;23.31;66.40
44839;BME280;30576;42.098;24.876;2023-07-24T00:29:29;99796.75;;;23.01;66.05
44839;BME280;30576;42.098;24.876;2023-07-24T00:31:54;99782.22;;;23.04;65.57
44839;BME280;30576;42.098;24.876;2023-07-24T00:34:20;99772.38;;;22.90;64.95
44839;BME280;30576;42.098;24.876;2023-07-24T00:36:45;99755.34;;;22.62;64.91
44839;BME280;30576;42.098;24.876;2023-07-24T00:39:13;99759.53;;;22.81;64.72
44839;BME280;30576;42.098;24.876;2023-07-24T00:41:39;99760.38;;;22.81;65.30
44839;BME280;30576;42.098;24.876;2023-07-24T00:44:06;99776.06;;;22.75;66.29
44839;BME280;30576;42.098;24.876;2023-07-24T00:46:32;99797.19;;;22.81;67.39
44839;BME280;30576;42.098;24.876;2023-07-24T00:48:59;99768.59;;;22.51;68.00
44839;BME280;30576;42.098;24.876;2023-07-24T00:51:28;99744.09;;;22.27;69.32
44839;BME280;30576;42.098;24.876;2023-07-24T00:53:55;99736.25;;;22.09;71.81
44839;BME280;30576;42.098;24.876;2023-07-24T00:56:22;99779.63;;;22.32;73.69
44839;BME280;30576;42.098;24.876;2023-07-24T00:58:49;99783.19;;;22.47;74.00
44839;BME280;30576;42.098;24.876;2023-07-24T01:01:17;99785.28;;;22.70;74.40
44839;BME280;30576;42.098;24.876;2023-07-24T01:03:44;99767.16;;;22.45;75.64
44839;BME280;30576;42.098;24.876;2023-07-24T01:06:11;99792.81;;;22.51;77.66
44839;BME280;30576;42.098;24.876;2023-07-24T01:08:40;99766.59;;;22.40;77.89
44839;BME280;30576;42.098;24.876;2023-07-24T01:13:42;99766.03;;;22.49;78.31
44839;BME280;30576;42.098;24.876;2023-07-24T01:16:18;99780.22;;;22.51;78.66
44839;BME280;30576;42.098;24.876;2023-07-24T01:18:46;99778.00;;;22.58;78.89
44839;BME280;30576;42.098;24.876;2023-07-24T01:21:15;99802.56;;;22.52;79.84
44839;BME280;30576;42.098;24.876;2023-07-24T01:24:02;99767.19;;;22.31;80.49
44839;BME280;30576;42.098;24.876;2023-07-24T01:26:28;99787.22;;;22.54;79.61
44839;BME280;30576;42.098;24.876;2023-07-24T01:28:54;99754.59;;;22.31;79.92
44839;BME280;30576;42.098;24.876;2023-07-24T01:31:19;99770.03;;;22.42;79.66
44839;BME280;30576;42.098;24.876;2023-07-24T01:33:45;99785.97;;;22.45;80.35
44839;BME280;30576;42.098;24.876;2023-07-24T01:36:11;99809.69;;;22.53;80.85
44839;BME280;30576;42.098;24.876;2023-07-24T01:38:42;99833.19;;;22.64;80.72
44839;BME280;30576;42.098;24.876;2023-07-24T01:41:08;99796.91;;;22.42;81.79
44839;BME280;30576;42.098;24.876;2023-07-24T01:43:34;99774.50;;;22.13;83.33
44839;BME280;30576;42.098;24.876;2023-07-24T01:45:59;99791.06;;;22.35;82.77
44839;BME280;30576;42.098;24.876;2023-07-24T01:48:26;99802.28;;;22.42;83.30
44839;BME280;30576;42.098;24.876;2023-07-24T01:50:52;99806.22;;;22.37;85.00
44839;BME280;30576;42.098;24.876;2023-07-24T01:53:17;99802.13;;;22.00;89.65
44839;BME280;30576;42.098;24.876;2023-07-24T01:55:43;99801.66;;;22.08;91.30
44839;BME280;30576;42.098;24.876;2023-07-24T01:58:09;99813.41;;;22.36;91.22
44839;BME280;30576;42.098;24.876;2023-07-24T02:00:35;99767.22;;;22.15;92.25
44839;BME280;30576;42.098;24.876;2023-07-24T02:03:00;99824.84;;;22.54;92.38
44839;BME280;30576;42.098;24.876;2023-07-24T02:05:26;99827.03;;;22.47;93.84
44839;BME280;30576;42.098;24.876;2023-07-24T02:07:52;99781.59;;;21.99;96.11
44839;BME280;30576;42.098;24.876;2023-07-24T02:10:20;99781.25;;;22.20;95.66
44839;BME280;30576;42.098;24.876;2023-07-24T02:12:45;99772.41;;;22.18;93.68
44839;BME280;30576;42.098;24.876;2023-07-24T02:15:12;99814.31;;;22.51;91.20
44839;BME280;30576;42.098;24.876;2023-07-24T02:17:39;99786.03;;;22.15;91.15
44839;BME280;30576;42.098;24.876;2023-07-24T02:20:05;99771.53;;;22.17;89.83
44839;BME280;30576;42.098;24.876;2023-07-24T02:22:30;99787.28;;;22.24;88.41
44839;BME280;30576;42.098;24.876;2023-07-24T02:24:56;99814.50;;;22.48;88.15
44839;BME280;30576;42.098;24.876;2023-07-24T02:27:30;99803.44;;;22.38;88.40
44839;BME280;30576;42.098;24.876;2023-07-24T02:29:57;99807.75;;;22.55;86.92
44839;BME280;30576;42.098;24.876;2023-07-24T02:32:23;99817.53;;;22.70;85.21
44839;BME280;30576;42.098;24.876;2023-07-24T02:34:52;99776.97;;;22.46;85.90
44839;BME280;30576;42.098;24.876;2023-07-24T02:37:18;99834.63;;;22.84;85.41
44839;BME280;30576;42.098;24.876;2023-07-24T02:39:44;99808.72;;;22.68;85.28
44839;BME280;30576;42.098;24.876;2023-07-24T02:42:10;99841.06;;;22.96;85.11
44839;BME280;30576;42.098;24.876;2023-07-24T02:44:35;99791.13;;;22.63;85.97
44839;BME280;30576;42.098;24.876;2023-07-24T02:47:01;99779.69;;;22.74;86.10
44839;BME280;30576;42.098;24.876;2023-07-24T02:49:27;99824.03;;;22.95;86.46
44839;BME280;30576;42.098;24.876;2023-07-24T02:51:52;99841.91;;;23.11;86.18
44839;BME280;30576;42.098;24.876;2023-07-24T02:54:18;99837.34;;;23.26;85.30
44839;BME280;30576;42.098;24.876;2023-07-24T02:56:43;99780.91;;;22.97;84.89
44839;BME280;30576;42.098;24.876;2023-07-24T02:59:11;99801.09;;;22.89;85.73
44839;BME280;30576;42.098;24.876;2023-07-24T03:01:36;99826.16;;;23.19;86.56
44839;BME280;30576;42.098;24.876;2023-07-24T03:04:04;99840.75;;;23.00;89.38
44839;BME280;30576;42.098;24.876;2023-07-24T03:06:31;99783.97;;;22.63;91.31
44839;BME280;30576;42.098;24.876;2023-07-24T03:08:57;99830.41;;;22.94;89.88
44839;BME280;30576;42.098;24.876;2023-07-24T03:11:22;99847.06;;;23.28;88.62
44839;BME280;30576;42.098;24.876;2023-07-24T03:13:48;99787.38;;;22.94;88.12
44839;BME280;30576;42.098;24.876;2023-07-24T03:16:13;99802.03;;;23.03;87.91
44839;BME280;30576;42.098;24.876;2023-07-24T03:18:39;99755.31;;;22.77;88.15
44839;BME280;30576;42.098;24.876;2023-07-24T03:21:04;99811.06;;;23.02;88.06
44839;BME280;30576;42.098;24.876;2023-07-24T03:23:30;99806.59;;;22.88;89.86
44839;BME280;30576;42.098;24.876;2023-07-24T03:25:55;99810.53;;;22.82;90.48
44839;BME280;30576;42.098;24.876;2023-07-24T03:28:20;99811.91;;;23.02;89.73
44839;BME280;30576;42.098;24.876;2023-07-24T03:30:46;99808.00;;;22.94;90.09
44839;BME280;30576;42.098;24.876;2023-07-24T03:33:12;99806.94;;;22.96;89.79
44839;BME280;30576;42.098;24.876;2023-07-24T03:35:38;99791.56;;;23.13;88.12
44839;BME280;30576;42.098;24.876;2023-07-24T03:38:05;99800.00;;;23.06;88.34
44839;BME280;30576;42.098;24.876;2023-07-24T03:40:30;99803.56;;;23.07;88.70
44839;BME280;30576;42.098;24.876;2023-07-24T03:43:00;99799.16;;;22.92;89.44
44839;BME280;30576;42.098;24.876;2023-07-24T03:45:25;99788.41;;;22.92;89.52
44839;BME280;30576;42.098;24.876;2023-07-24T03:47:51;99786.19;;;22.98;89.77
44839;BME280;30576;42.098;24.876;2023-07-24T03:50:16;99773.63;;;22.84;89.96
44839;BME280;30576;42.098;24.876;2023-07-24T03:52:42;99788.00;;;22.98;89.56
44839;BME280;30576;42.098;24.876;2023-07-24T03:55:08;99816.47;;;23.29;89.26
44839;BME280;30576;42.098;24.876;2023-07-24T03:57:34;99807.25;;;23.33;88.52
44839;BME280;30576;42.098;24.876;2023-07-24T04:00:00;99816.56;;;23.42;88.05
44839;BME280;30576;42.098;24.876;2023-07-24T04:02:25;99835.88;;;23.62;87.36
44839;BME280;30576;42.098;24.876;2023-07-24T04:04:50;99815.94;;;23.51;87.37
44839;BME280;30576;42.098;24.876;2023-07-24T04:07:16;99815.44;;;23.59;87.03
44839;BME280;30576;42.098;24.876;2023-07-24T04:09:41;99800.66;;;23.65;85.33
44839;BME280;30576;42.098;24.876;2023-07-24T04:12:07;99803.88;;;23.57;86.22
44839;BME280;30576;42.098;24.876;2023-07-24T04:14:32;99816.31;;;23.72;85.94
44839;BME280;30576;42.098;24.876;2023-07-24T04:16:58;99807.47;;;23.70;85.87
44839;BME280;30576;42.098;24.876;2023-07-24T04:19:23;99803.94;;;23.70;85.80
44839;BME280;30576;42.098;24.876;2023-07-24T04:21:49;99820.09;;;23.83;84.76
44839;BME280;30576;42.098;24.876;2023-07-24T04:24:14;99773.00;;;23.35;85.75
44839;BME280;30576;42.098;24.876;2023-07-24T04:26:40;99818.13;;;23.32;87.71
44839;BME280;30576;42.098;24.876;2023-07-24T04:29:06;99781.59;;;23.28;86.04
44839;BME280;30576;42.098;24.876;2023-07-24T04:31:32;99846.50;;;23.77;86.11
44839;BME280;30576;42.098;24.876;2023-07-24T04:33:57;99815.56;;;23.70;86.25
44839;BME280;30576;42.098;24.876;2023-07-24T04:36:23;99827.81;;;23.89;85.37
44839;BME280;30576;42.098;24.876;2023-07-24T04:38:48;99822.09;;;23.93;84.84
44839;BME280;30576;42.098;24.876;2023-07-24T04:41:14;99819.28;;;23.95;83.25
44839;BME280;30576;42.098;24.876;2023-07-24T04:43:39;99844.53;;;24.07;77.59
44839;BME280;30576;42.098;24.876;2023-07-24T04:46:04;99802.03;;;23.85;71.97
44839;BME280;30576;42.098;24.876;2023-07-24T04:48:30;99844.44;;;24.34;69.00
44839;BME280;30576;42.098;24.876;2023-07-24T04:50:56;99879.81;;;24.55;67.82
44839;BME280;30576;42.098;24.876;2023-07-24T04:53:22;99849.13;;;24.58;67.80
44839;BME280;30576;42.098;24.876;2023-07-24T04:55:48;99849.84;;;24.73;66.44
44839;BME280;30576;42.098;24.876;2023-07-24T04:58:13;99868.81;;;24.71;65.60
44839;BME280;30576;42.098;24.876;2023-07-24T05:00:39;99840.91;;;24.72;65.08
44839;BME280;30576;42.098;24.876;2023-07-24T05:03:04;99833.53;;;24.74;63.76
44839;BME280;30576;42.098;24.876;2023-07-24T05:05:31;99882.03;;;25.13;63.16
44839;BME280;30576;42.098;24.876;2023-07-24T05:07:57;99887.84;;;25.32;64.32
44839;BME280;30576;42.098;24.876;2023-07-24T05:10:22;99868.97;;;25.32;64.76
44839;BME280;30576;42.098;24.876;2023-07-24T05:12:48;99858.19;;;25.19;64.62
44839;BME280;30576;42.098;24.876;2023-07-24T05:15:13;99848.69;;;25.51;62.48
44839;BME280;30576;42.098;24.876;2023-07-24T05:17:42;99870.75;;;25.69;61.57
44839;BME280;30576;42.098;24.876;2023-07-24T05:20:08;99855.28;;;25.71;60.59
44839;BME280;30576;42.098;24.876;2023-07-24T05:22:34;99899.94;;;26.12;59.10
44839;BME280;30576;42.098;24.876;2023-07-24T05:24:59;99855.97;;;25.86;57.77
44839;BME280;30576;42.098;24.876;2023-07-24T05:27:24;99846.13;;;25.85;59.30
44839;BME280;30576;42.098;24.876;2023-07-24T05:29:50;99859.28;;;25.89;60.92
44839;BME280;30576;42.098;24.876;2023-07-24T05:32:15;99869.75;;;25.94;62.26
44839;BME280;30576;42.098;24.876;2023-07-24T05:34:41;99840.72;;;25.85;62.86
44839;BME280;30576;42.098;24.876;2023-07-24T05:37:06;99860.63;;;26.08;62.65
44839;BME280;30576;42.098;24.876;2023-07-24T05:39:32;99852.03;;;26.25;61.48
44839;BME280;30576;42.098;24.876;2023-07-24T05:41:57;99883.19;;;26.54;60.44
44839;BME280;30576;42.098;24.876;2023-07-24T05:44:22;99834.97;;;26.48;59.76
44839;BME280;30576;42.098;24.876;2023-07-24T05:46:48;99883.09;;;26.89;59.67
44839;BME280;30576;42.098;24.876;2023-07-24T05:49:13;99869.59;;;27.01;58.54
44839;BME280;30576;42.098;24.876;2023-07-24T05:51:39;99874.09;;;27.34;57.96
44839;BME280;30576;42.098;24.876;2023-07-24T05:54:04;99861.84;;;27.62;56.08
44839;BME280;30576;42.098;24.876;2023-07-24T05:56:30;99857.94;;;27.55;55.20
44839;BME280;30576;42.098;24.876;2023-07-24T05:58:56;99856.84;;;27.79;54.79
44839;BME280;30576;42.098;24.876;2023-07-24T06:01:21;99856.31;;;27.96;54.49
44839;BME280;30576;42.098;24.876;2023-07-24T06:03:47;99862.53;;;28.29;52.75
44839;BME280;30576;42.098;24.876;2023-07-24T06:06:14;99851.97;;;28.26;51.87
44839;BME280;30576;42.098;24.876;2023-07-24T06:08:39;99834.31;;;28.11;50.95
44839;BME280;30576;42.098;24.876;2023-07-24T06:11:05;99849.25;;;28.26;50.38
44839;BME280;30576;42.098;24.876;2023-07-24T06:13:30;99841.97;;;28.27;50.05
44839;BME280;30576;42.098;24.876;2023-07-24T06:15:56;99843.66;;;28.70;48.57
44839;BME280;30576;42.098;24.876;2023-07-24T06:18:21;99858.94;;;28.71;49.20
44839;BME280;30576;42.098;24.876;2023-07-24T06:20:47;99821.81;;;28.71;48.97
44839;BME280;30576;42.098;24.876;2023-07-24T06:23:15;99815.91;;;28.97;48.82
44839;BME280;30576;42.098;24.876;2023-07-24T06:25:40;99821.81;;;29.12;47.21
44839;BME280;30576;42.098;24.876;2023-07-24T06:28:06;99830.88;;;29.42;47.51
44839;BME280;30576;42.098;24.876;2023-07-24T06:30:31;99831.38;;;29.86;47.07
44839;BME280;30576;42.098;24.876;2023-07-24T06:32:56;99805.28;;;29.54;44.85
44839;BME280;30576;42.098;24.876;2023-07-24T06:35:22;99837.50;;;29.88;45.20
44839;BME280;30576;42.098;24.876;2023-07-24T06:37:47;99832.59;;;30.31;44.70
44839;BME280;30576;42.098;24.876;2023-07-24T06:40:14;99819.31;;;30.65;43.31
44839;BME280;30576;42.098;24.876;2023-07-24T06:42:40;99827.47;;;30.65;42.91
44839;BME280;30576;42.098;24.876;2023-07-24T06:45:09;99821.94;;;30.47;42.42
44839;BME280;30576;42.098;24.876;2023-07-24T06:47:35;99811.44;;;30.62;43.40
44839;BME280;30576;42.098;24.876;2023-07-24T06:50:01;99803.34;;;30.80;42.89
44839;BME280;30576;42.098;24.876;2023-07-24T06:52:27;99831.22;;;30.92;44.31
44839;BME280;30576;42.098;24.876;2023-07-24T06:54:53;99801.34;;;31.10;43.38
44839;BME280;30576;42.098;24.876;2023-07-24T06:57:18;99764.56;;;31.42;43.35
44839;BME280;30576;42.098;24.876;2023-07-24T06:59:44;99831.00;;;31.77;43.81
44839;BME280;30576;42.098;24.876;2023-07-24T07:02:09;99789.00;;;31.70;43.24
44839;BME280;30576;42.098;24.876;2023-07-24T07:04:35;99816.19;;;31.80;43.67
44839;BME280;30576;42.098;24.876;2023-07-24T07:07:00;99795.72;;;31.57;43.28
44839;BME280;30576;42.098;24.876;2023-07-24T07:09:26;99784.88;;;31.66;43.79
44839;BME280;30576;42.098;24.876;2023-07-24T07:11:51;99778.66;;;31.55;43.50
44839;BME280;30576;42.098;24.876;2023-07-24T07:14:16;99824.28;;;31.89;41.80
44839;BME280;30576;42.098;24.876;2023-07-24T07:16:42;99805.56;;;32.12;42.41
44839;BME280;30576;42.098;24.876;2023-07-24T07:19:07;99801.16;;;32.46;40.63
44839;BME280;30576;42.098;24.876;2023-07-24T07:21:34;99770.88;;;32.31;41.52
44839;BME280;30576;42.098;24.876;2023-07-24T07:24:00;99782.06;;;32.46;40.83
44839;BME280;30576;42.098;24.876;2023-07-24T07:26:26;99758.75;;;32.60;41.24
44839;BME280;30576;42.098;24.876;2023-07-24T07:28:51;99790.59;;;33.20;40.71
44839;BME280;30576;42.098;24.876;2023-07-24T07:31:17;99749.81;;;32.84;41.28
44839;BME280;30576;42.098;24.876;2023-07-24T07:33:42;99758.28;;;32.64;41.10
44839;BME280;30576;42.098;24.876;2023-07-24T07:36:08;99796.13;;;32.94;40.72
44839;BME280;30576;42.098;24.876;2023-07-24T07:38:33;99787.94;;;32.94;41.13
44839;BME280;30576;42.098;24.876;2023-07-24T07:41:03;99744.22;;;32.59;41.29
44839;BME280;30576;42.098;24.876;2023-07-24T07:43:29;99776.81;;;32.61;40.76
44839;BME280;30576;42.098;24.876;2023-07-24T07:45:54;99773.00;;;32.45;41.58
44839;BME280;30576;42.098;24.876;2023-07-24T07:48:21;99733.91;;;32.79;42.14
44839;BME280;30576;42.098;24.876;2023-07-24T07:50:53;99781.06;;;33.32;41.65
44839;BME280;30576;42.098;24.876;2023-07-24T07:53:18;99743.13;;;33.29;40.66
44839;BME280;30576;42.098;24.876;2023-07-24T07:55:44;99747.59;;;32.45;42.19
44839;BME280;30576;42.098;24.876;2023-07-24T07:58:09;99785.03;;;32.95;42.30
44839;BME280;30576;42.098;24.876;2023-07-24T08:00:35;99734.47;;;32.48;41.91
44839;BME280;30576;42.098;24.876;2023-07-24T08:03:00;99746.81;;;33.12;40.21
44839;BME280;30576;42.098;24.876;2023-07-24T08:05:26;99775.25;;;33.68;41.02
44839;BME280;30576;42.098;24.876;2023-07-24T08:07:51;99746.22;;;33.59;40.17
44839;BME280;30576;42.098;24.876;2023-07-24T08:10:17;99763.03;;;33.05;40.96
44839;BME280;30576;42.098;24.876;2023-07-24T08:12:43;99742.13;;;33.39;41.03
44839;BME280;30576;42.098;24.876;2023-07-24T08:15:09;99749.81;;;33.84;37.45
44839;BME280;30576;42.098;24.876;2023-07-24T08:17:34;99747.25;;;33.42;39.15
44839;BME280;30576;42.098;24.876;2023-07-24T08:20:00;99766.88;;;34.03;36.49
44839;BME280;30576;42.098;24.876;2023-07-24T08:22:25;99731.44;;;34.34;36.30
44839;BME280;30576;42.098;24.876;2023-07-24T08:24:51;99723.22;;;34.34;35.30
44839;BME280;30576;42.098;24.876;2023-07-24T08:27:17;99745.00;;;34.67;36.60
44839;BME280;30576;42.098;24.876;2023-07-24T08:29:42;99738.19;;;34.55;34.23
44839;BME280;30576;42.098;24.876;2023-07-24T08:32:08;99749.72;;;34.42;34.65
44839;BME280;30576;42.098;24.876;2023-07-24T08:50:38;99741.44;;;35.21;35.31
44839;BME280;30576;42.098;24.876;2023-07-24T08:53:03;99704.09;;;35.28;33.73
44839;BME280;30576;42.098;24.876;2023-07-24T08:55:29;99702.88;;;35.69;33.56
44839;BME280;30576;42.098;24.876;2023-07-24T08:57:55;99707.94;;;35.11;34.07
44839;BME280;30576;42.098;24.876;2023-07-24T09:00:21;99720.13;;;35.08;34.88
44839;BME280;30576;42.098;24.876;2023-07-24T09:02:46;99729.50;;;35.14;34.11
44839;BME280;30576;42.098;24.876;2023-07-24T09:05:12;99714.22;;;34.57;36.75
44839;BME280;30576;42.098;24.876;2023-07-24T09:07:39;99720.72;;;35.19;33.50
44839;BME280;30576;42.098;24.876;2023-07-24T09:10:05;99711.47;;;34.96;35.61
44839;BME280;30576;42.098;24.876;2023-07-24T09:12:31;99715.31;;;35.10;34.84
44839;BME280;30576;42.098;24.876;2023-07-24T09:15:06;99720.66;;;35.35;33.89
44839;BME280;30576;42.098;24.876;2023-07-24T09:17:32;99699.88;;;35.18;34.09
44839;BME280;30576;42.098;24.876;2023-07-24T09:19:59;99701.19;;;35.22;33.50
44839;BME280;30576;42.098;24.876;2023-07-24T09:22:25;99683.72;;;35.23;33.91
44839;BME280;30576;42.098;24.876;2023-07-24T09:24:53;99698.81;;;35.19;33.72
44839;BME280;30576;42.098;24.876;2023-07-24T09:27:20;99701.91;;;34.92;35.08
44839;BME280;30576;42.098;24.876;2023-07-24T09:29:46;99703.69;;;34.77;34.27
44839;BME280;30576;42.098;24.876;2023-07-24T09:32:23;99700.81;;;35.02;33.71
44839;BME280;30576;42.098;24.876;2023-07-24T09:34:50;99670.81;;;35.31;34.72
44839;BME280;30576;42.098;24.876;2023-07-24T09:37:25;99694.59;;;35.08;35.97
44839;BME280;30576;42.098;24.876;2023-07-24T09:39:51;99672.28;;;35.19;35.23
44839;BME280;30576;42.098;24.876;2023-07-24T09:42:16;99678.19;;;35.69;33.42
44839;BME280;30576;42.098;24.876;2023-07-24T09:44:43;99670.66;;;35.48;31.80
44839;BME280;30576;42.098;24.876;2023-07-24T09:47:09;99674.97;;;35.65;32.63
44839;BME280;30576;42.098;24.876;2023-07-24T09:49:34;99669.66;;;35.26;33.79
44839;BME280;30576;42.098;24.876;2023-07-24T09:52:06;99655.19;;;35.55;37.04
44839;BME280;30576;42.098;24.876;2023-07-24T09:54:41;99647.19;;;35.83;32.00
44839;BME280;30576;42.098;24.876;2023-07-24T09:57:11;99643.75;;;35.66;32.19
44839;BME280;30576;42.098;24.876;2023-07-24T09:59:39;99645.97;;;35.48;32.45
44839;BME280;30576;42.098;24.876;2023-07-24T10:02:11;99620.34;;;35.94;31.23
44839;BME280;30576;42.098;24.876;2023-07-24T10:04:38;99622.09;;;35.72;32.07
44839;BME280;30576;42.098;24.876;2023-07-24T10:07:06;99605.25;;;35.60;31.84
44839;BME280;30576;42.098;24.876;2023-07-24T10:09:34;99626.69;;;35.79;32.10
44839;BME280;30576;42.098;24.876;2023-07-24T10:12:02;99625.81;;;35.94;31.53
44839;BME280;30576;42.098;24.876;2023-07-24T10:14:28;99616.03;;;35.61;33.11
44839;BME280;30576;42.098;24.876;2023-07-24T10:16:56;99617.97;;;35.91;34.96
44839;BME280;30576;42.098;24.876;2023-07-24T10:19:22;99617.84;;;36.14;32.63
44839;BME280;30576;42.098;24.876;2023-07-24T10:21:48;99616.44;;;35.88;33.15
44839;BME280;30576;42.098;24.876;2023-07-24T10:24:17;99610.69;;;35.98;33.02
44839;BME280;30576;42.098;24.876;2023-07-24T10:26:43;99593.56;;;35.81;32.08
44839;BME280;30576;42.098;24.876;2023-07-24T10:29:09;99605.56;;;35.80;32.77
44839;BME280;30576;42.098;24.876;2023-07-24T10:31:35;99590.31;;;35.62;33.26
44839;BME280;30576;42.098;24.876;2023-07-24T10:34:04;99559.78;;;35.65;31.95
44839;BME280;30576;42.098;24.876;2023-07-24T10:36:34;99580.66;;;36.11;32.11
44839;BME280;30576;42.098;24.876;2023-07-24T10:38:59;99578.09;;;36.10;31.08
44839;BME280;30576;42.098;24.876;2023-07-24T10:41:36;99557.03;;;35.65;30.97
44839;BME280;30576;42.098;24.876;2023-07-24T10:44:02;99558.63;;;35.75;29.72
44839;BME280;30576;42.098;24.876;2023-07-24T10:46:41;99579.63;;;36.12;32.49
44839;BME280;30576;42.098;24.876;2023-07-24T10:49:08;99549.56;;;35.89;31.92
44839;BME280;30576;42.098;24.876;2023-07-24T10:51:34;99543.44;;;35.87;31.65
44839;BME280;30576;42.098;24.876;2023-07-24T10:54:03;99561.38;;;35.90;31.83
44839;BME280;30576;42.098;24.876;2023-07-24T10:56:29;99551.34;;;35.67;32.01
44839;BME280;30576;42.098;24.876;2023-07-24T10:58:54;99552.13;;;35.91;32.08
44839;BME280;30576;42.098;24.876;2023-07-24T11:01:20;99550.06;;;35.78;31.62
44839;BME280;30576;42.098;24.876;2023-07-24T11:03:46;99539.09;;;36.14;31.90
44839;BME280;30576;42.098;24.876;2023-07-24T11:06:20;99505.88;;;35.58;30.33
44839;BME280;30576;42.098;24.876;2023-07-24T11:08:54;99526.38;;;35.47;30.63
44839;BME280;30576;42.098;24.876;2023-07-24T11:11:22;99527.69;;;35.66;30.68
44839;BME280;30576;42.098;24.876;2023-07-24T11:13:48;99511.34;;;35.88;31.54
44839;BME280;30576;42.098;24.876;2023-07-24T11:16:14;99522.28;;;36.02;30.13
44839;BME280;30576;42.098;24.876;2023-07-24T11:18:50;99494.19;;;36.22;30.66
44839;BME280;30576;42.098;24.876;2023-07-24T11:21:17;99509.44;;;36.61;30.29
44839;BME280;30576;42.098;24.876;2023-07-24T11:23:50;99514.56;;;36.28;29.63
44839;BME280;30576;42.098;24.876;2023-07-24T11:26:19;99506.84;;;36.16;30.77
44839;BME280;30576;42.098;24.876;2023-07-24T11:28:45;99505.50;;;36.12;29.45
44839;BME280;30576;42.098;24.876;2023-07-24T11:31:10;99490.56;;;36.15;27.64
44839;BME280;30576;42.098;24.876;2023-07-24T11:33:37;99481.22;;;35.94;27.06
44839;BME280;30576;42.098;24.876;2023-07-24T11:36:04;99493.72;;;35.97;27.65
44839;BME280;30576;42.098;24.876;2023-07-24T11:38:30;99488.16;;;36.27;27.74
44839;BME280;30576;42.098;24.876;2023-07-24T11:40:55;99473.91;;;36.60;28.19
44839;BME280;30576;42.098;24.876;2023-07-24T11:43:24;99468.53;;;36.73;26.85
44839;BME280;30576;42.098;24.876;2023-07-24T11:45:52;99494.06;;;36.45;25.20
44839;BME280;30576;42.098;24.876;2023-07-24T11:48:22;99469.63;;;36.29;26.41
44839;BME280;30576;42.098;24.876;2023-07-24T11:50:51;99481.16;;;36.24;26.72
44839;BME280;30576;42.098;24.876;2023-07-24T11:55:50;99468.69;;;36.07;32.10
44839;BME280;30576;42.098;24.876;2023-07-24T11:58:16;99480.66;;;36.79;30.45
44839;BME280;30576;42.098;24.876;2023-07-24T12:00:42;99453.38;;;36.77;27.88
44839;BME280;30576;42.098;24.876;2023-07-24T12:03:07;99468.03;;;37.19;26.23
44839;BME280;30576;42.098;24.876;2023-07-24T12:05:43;99453.44;;;36.62;24.97
44839;BME280;30576;42.098;24.876;2023-07-24T12:08:12;99474.41;;;36.70;24.95
44839;BME280;30576;42.098;24.876;2023-07-24T12:10:40;99456.75;;;36.79;24.62
44839;BME280;30576;42.098;24.876;2023-07-24T12:13:06;99461.47;;;36.85;24.63
44839;BME280;30576;42.098;24.876;2023-07-24T12:15:32;99476.19;;;37.06;23.88
44839;BME280;30576;42.098;24.876;2023-07-24T12:18:01;99459.09;;;37.10;24.33
44839;BME280;30576;42.098;24.876;2023-07-24T12:20:26;99458.56;;;36.94;23.45
44839;BME280;30576;42.098;24.876;2023-07-24T12:22:52;99467.06;;;36.99;24.93
44839;BME280;30576;42.098;24.876;2023-07-24T12:25:19;99451.16;;;37.22;24.13
44839;BME280;30576;42.098;24.876;2023-07-24T12:27:45;99437.66;;;37.27;23.37
44839;BME280;30576;42.098;24.876;2023-07-24T12:30:12;99432.28;;;37.19;22.67
44839;BME280;30576;42.098;24.876;2023-07-24T12:32:38;99451.50;;;37.48;26.53
44839;BME280;30576;42.098;24.876;2023-07-24T12:35:04;99448.97;;;37.94;22.27
44839;BME280;30576;42.098;24.876;2023-07-24T12:37:30;99429.88;;;37.73;22.37
44839;BME280;30576;42.098;24.876;2023-07-24T12:39:56;99408.31;;;37.96;22.81
44839;BME280;30576;42.098;24.876;2023-07-24T12:42:21;99434.25;;;38.22;22.47
44839;BME280;30576;42.098;24.876;2023-07-24T12:44:47;99421.97;;;38.38;22.21
44839;BME280;30576;42.098;24.876;2023-07-24T12:47:12;99429.25;;;37.91;23.21
44839;BME280;30576;42.098;24.876;2023-07-24T12:49:38;99418.47;;;37.41;23.40
44839;BME280;30576;42.098;24.876;2023-07-24T12:52:04;99426.41;;;37.64;23.16
44839;BME280;30576;42.098;24.876;2023-07-24T12:54:31;99398.53;;;37.74;23.03
44839;BME280;30576;42.098;24.876;2023-07-24T12:56:57;99407.22;;;37.84;23.02
44839;BME280;30576;42.098;24.876;2023-07-24T12:59:22;99384.66;;;37.54;22.86
44839;BME280;30576;42.098;24.876;2023-07-24T13:01:48;99396.22;;;37.91;23.51
44839;BME280;30576;42.098;24.876;2023-07-24T13:04:13;99395.16;;;37.78;22.95
44839;BME280;30576;42.098;24.876;2023-07-24T13:06:39;99378.00;;;37.70;23.48